Time;durP1;ratioP1;P1;durP2;ratioP2;P2;SDS_P1;SDS_P2;PMS_P1;PMS_P2;Temp;Humidity;BMP_temperature;BMP_pressure;BME280_temperature;BME280_humidity;BME280_pressure;Samples;Min_cycle;Max_cycle;Signal;HPM_P1;HPM_P2
2021/09/12 07:38:45;;;;;;;2.85;1.80;;;21.20;72.70;;;;;;6372026;27;20594;-69
2021/09/12 07:41:46;;;;;;;3.10;1.95;;;21.10;73.10;;;;;;6327418;28;20015;-69
2021/09/12 07:44:47;;;;;;;2.22;1.70;;;21.20;72.90;;;;;;6346279;28;20462;-69
2021/09/12 07:47:47;;;;;;;3.20;2.00;;;21.20;72.60;;;;;;6328387;28;20027;-69
2021/09/12 07:50:48;;;;;;;2.38;1.83;;;21.30;72.40;;;;;;6327475;28;20418;-69
2021/09/12 07:53:49;;;;;;;3.55;2.00;;;21.30;72.30;;;;;;6346057;28;20024;-70
2021/09/12 07:56:49;;;;;;;2.58;1.65;;;21.40;72.20;;;;;;6345014;28;20035;-69
2021/09/12 07:59:50;;;;;;;2.53;2.03;;;21.40;72.00;;;;;;6327833;28;20034;-69
2021/09/12 08:02:50;;;;;;;3.35;2.00;;;21.50;71.90;;;;;;6310296;28;20024;-70
2021/09/12 08:05:51;;;;;;;3.15;2.28;;;21.50;71.70;;;;;;6360856;28;20055;-69
2021/09/12 08:08:52;;;;;;;4.10;2.47;;;21.50;71.40;;;;;;6370156;28;20059;-68
2021/09/12 08:11:52;;;;;;;3.92;2.13;;;21.50;71.60;;;;;;6371041;28;20092;-69
2021/09/12 08:14:53;;;;;;;4.43;2.28;;;21.50;71.60;;;;;;6369872;28;20038;-69
2021/09/12 08:17:53;;;;;;;3.92;1.88;;;21.50;71.60;;;;;;6352862;28;20023;-69
2021/09/12 08:20:54;;;;;;;3.35;2.20;;;21.50;71.60;;;;;;6352873;28;20023;-70
2021/09/12 08:23:54;;;;;;;5.32;2.50;;;21.60;71.60;;;;;;6370049;28;20027;-70
2021/09/12 08:26:55;;;;;;;8.02;4.28;;;21.60;71.50;;;;;;6352813;28;20035;-69
2021/09/12 08:29:56;;;;;;;6.18;2.97;;;21.70;71.40;;;;;;6351499;28;20039;-70
2021/09/12 08:32:57;;;;;;;10.23;3.70;;;21.80;71.50;;;;;;6353190;28;20023;-71
2021/09/12 08:35:57;;;;;;;9.55;3.55;;;21.70;71.50;;;;;;6349989;28;20070;-71
2021/09/12 08:38:59;;;;;;;12.57;3.40;;;21.80;71.60;;;;;;6334329;28;20491;-68
2021/09/12 08:41:59;;;;;;;12.98;4.00;;;21.80;71.70;;;;;;6138646;28;64148;-69
2021/09/12 08:45:01;;;;;;;11.07;4.15;;;21.80;71.80;;;;;;6282408;28;20032;-67
2021/09/12 08:48:02;;;;;;;15.80;4.20;;;21.80;72.00;;;;;;6311292;28;20035;-69
2021/09/12 08:51:03;;;;;;;20.52;5.40;;;21.90;72.00;;;;;;6300550;28;20020;-69
2021/09/12 08:54:03;;;;;;;14.90;4.75;;;21.90;72.00;;;;;;6301493;28;20020;-70
2021/09/12 08:57:04;;;;;;;24.17;5.80;;;21.90;71.90;;;;;;6301441;28;20111;-69
2021/09/12 09:00:14;;;;;;;14.80;4.78;;;21.90;71.80;;;;;;6301516;28;20020;-69
2021/09/12 09:03:14;;;;;;;10.90;4.00;;;21.90;71.80;;;;;;6300253;28;20469;-69
2021/09/12 09:06:17;;;;;;;16.05;5.55;;;22.00;71.70;;;;;;6284922;28;20033;-68
2021/09/12 09:09:18;;;;;;;23.25;5.30;;;22.00;71.60;;;;;;6300434;28;20067;-68
2021/09/12 09:12:32;;;;;;;20.08;4.97;;;22.00;71.50;;;;;;6301798;28;20046;-68
2021/09/12 09:15:32;;;;;;;16.90;4.93;;;22.00;71.50;;;;;;6300787;28;20070;-68
2021/09/12 09:18:40;;;;;;;16.77;5.00;;;22.00;71.50;;;;;;6284330;28;20036;-69
2021/09/12 09:21:48;;;;;;;19.13;5.78;;;22.00;71.50;;;;;;6284126;28;20033;-71
2021/09/12 09:24:48;;;;;;;14.52;4.97;;;22.00;71.40;;;;;;6301802;28;20028;-70
2021/09/12 09:27:58;;;;;;;19.42;4.78;;;22.00;71.40;;;;;;6301256;28;20024;-68
2021/09/12 09:31:01;;;;;;;15.55;4.30;;;22.00;71.40;;;;;;6267209;28;20024;-69
2021/09/12 09:34:20;;;;;;;18.42;5.53;;;22.00;71.40;;;;;;6301369;28;20455;-68
2021/09/12 09:37:21;;;;;;;22.42;5.85;;;22.00;71.40;;;;;;6299849;28;20036;-70
2021/09/12 09:40:22;;;;;;;19.02;5.95;;;22.00;71.30;;;;;;6301792;28;20090;-70
2021/09/12 09:43:23;;;;;;;16.70;5.50;;;22.00;71.30;;;;;;6300043;28;20025;-71
2021/09/12 09:46:40;;;;;;;15.57;5.18;;;22.00;71.30;;;;;;6300554;28;20021;-69
2021/09/12 09:49:41;;;;;;;16.00;4.72;;;22.00;71.30;;;;;;6283493;28;20386;-71
2021/09/12 09:52:46;;;;;;;14.68;5.15;;;22.10;71.20;;;;;;6279664;28;20090;-72
2021/09/12 09:55:47;;;;;;;17.17;5.55;;;22.10;71.20;;;;;;6281424;28;20506;-70
2021/09/12 09:58:47;;;;;;;15.57;4.80;;;22.20;71.60;;;;;;6299005;28;20021;-68
2021/09/12 10:01:51;;;;;;;13.82;4.68;;;22.20;70.70;;;;;;6298023;28;20020;-70
2021/09/12 10:04:52;;;;;;;16.08;4.47;;;22.30;70.50;;;;;;6266876;28;20025;-69
2021/09/12 10:07:53;;;;;;;13.02;4.30;;;22.40;70.30;;;;;;6299641;28;20033;-73
2021/09/12 10:10:54;;;;;;;17.20;4.78;;;22.50;70.00;;;;;;6282583;28;20028;-73
2021/09/12 10:13:54;;;;;;;10.55;4.03;;;22.50;70.00;;;;;;6300574;28;20451;-69
